createdAt,value
2019-03-03T00:00:57.020Z,6.40
2019-03-03T00:30:51.545Z,6.12
2019-03-03T01:00:55.845Z,5.81
2019-03-03T01:15:59.255Z,5.77
2019-03-03T01:30:50.972Z,5.73
2019-03-03T02:00:53.202Z,5.54
2019-03-03T02:15:50.731Z,5.49
2019-03-03T02:30:50.749Z,5.40
2019-03-03T02:45:51.655Z,5.43
2019-03-03T03:00:56.121Z,5.46
2019-03-03T03:15:56.624Z,5.52
2019-03-03T05:30:51.220Z,6.65
2019-03-03T05:45:50.602Z,6.78
2019-03-03T06:00:51.584Z,6.91
2019-03-03T06:15:50.799Z,7.21
2019-03-03T06:30:50.726Z,7.26
2019-03-03T06:45:50.775Z,7.33
2019-03-03T07:00:51.071Z,7.43
2019-03-03T07:15:57.511Z,7.52
2019-03-03T07:30:51.004Z,7.52
2019-03-03T07:45:50.918Z,7.56
2019-03-03T08:00:51.575Z,7.85
2019-03-03T08:15:53.875Z,8.04
2019-03-03T08:30:51.232Z,8.27
2019-03-03T08:45:59.989Z,8.40
2019-03-03T09:00:55.202Z,8.61
2019-03-03T09:15:56.593Z,8.90
2019-03-03T09:31:00.320Z,9.25
2019-03-03T10:00:55.835Z,10.31
2019-03-03T10:15:55.674Z,10.69
2019-03-03T10:30:54.720Z,10.95
2019-03-03T11:00:57.763Z,10.43
2019-03-03T11:15:57.973Z,9.76
2019-03-03T12:00:59.350Z,9.51
2019-03-03T12:15:59.965Z,9.74
2019-03-03T12:31:00.490Z,10.00
2019-03-03T12:45:57.000Z,10.28
2019-03-03T13:15:57.992Z,10.66
2019-03-03T13:30:57.855Z,10.71
2019-03-03T13:45:51.412Z,10.65
2019-03-03T14:00:51.467Z,10.47
2019-03-03T14:15:51.644Z,10.33
2019-03-03T14:30:51.162Z,10.22
2019-03-03T14:45:51.401Z,10.06
2019-03-03T15:00:53.500Z,9.89
2019-03-03T15:15:51.575Z,9.68
2019-03-03T15:30:51.564Z,9.48
2019-03-03T15:45:51.044Z,9.19
2019-03-03T16:00:53.444Z,8.99
2019-03-03T16:15:50.956Z,8.80
2019-03-03T16:30:51.372Z,8.68
2019-03-03T16:45:51.465Z,8.46
2019-03-03T17:00:51.990Z,8.28
2019-03-03T17:30:54.779Z,8.11
2019-03-03T17:45:53.308Z,8.03
2019-03-03T18:00:54.354Z,7.98
2019-03-03T18:30:51.820Z,7.94
2019-03-03T18:45:53.512Z,7.76
2019-03-03T19:00:58.610Z,7.56
2019-03-03T19:15:51.952Z,7.27
2019-03-03T19:30:51.630Z,7.03
2019-03-03T19:45:53.398Z,6.89
2019-03-03T20:00:51.561Z,6.94
2019-03-03T20:15:51.456Z,7.02
2019-03-03T20:30:51.044Z,7.11
2019-03-03T20:45:50.964Z,7.06
2019-03-03T21:00:51.332Z,7.06
2019-03-03T21:15:50.377Z,7.13
2019-03-03T21:30:52.877Z,7.10
2019-03-03T21:45:50.785Z,7.06
2019-03-03T22:00:51.249Z,7.08
2019-03-03T22:15:53.215Z,6.90
2019-03-03T22:30:51.255Z,6.81
2019-03-03T22:45:51.244Z,6.85
2019-03-03T23:30:55.466Z,6.74
2019-03-03T23:45:51.428Z,6.78
